M. S. Shahan II — WDD7097 — position and weather

sailwx.info

Track history (hours):
 
Tides and Currents Weather Stations Pressure Air Temp Water Temp Dewpoint Dewpoint Depression Visibility Wind Speed Wind Dir Waves Ship Positions

M. S. Shahan II

Owner: Department of Homeland Security Plum Island Facility, Greenport, NY. More information available from US FCC via Universal Licensing System and Coast Guard Vessel Documentation Center.

Last reported at 2017-Nov-17 22:08 UTC. Time now 2017-Nov-24 05:53 UTC.
Position N 41°11' W 072°15'.

Length 40 m; draft 3 m.

Type: Passenger vessel. MMSI: 367181880.

Date/timePositionNaut miles runAvg speedWind from/ knotsBaromVisibWave heightAir tempDewpointWater temp
2017-Nov-17 22:08N 41°11' W 072°15'323.0
2017-Nov-17 22:00N 41°14' W 072°18'1 1.1
2017-Nov-17 21:30N 41°13' W 072°17'1 1.6
2017-Nov-17 20:35N 41°12' W 072°16'225.8
2017-Nov-17 20:30N 41°14' W 072°18'0 1.0
2017-Nov-17 20:01N 41°14' W 072°17'1 0.3
2017-Nov-17 17:16N 41°14' W 072°18'311.0
2017-Nov-17 17:00N 41°17' W 072°21'6 1.4
2017-Nov-17 13:03N 41°12' W 072°16'121.1
2017-Nov-17 13:00N 41°13' W 072°17'5 9.4
2017-Nov-17 12:30N 41°17' W 072°21'7 8.0
2017-Nov-17 11:38N 41°11' W 072°15'321.3
2017-Nov-17 11:30N 41°13' W 072°17'5 9.5
2017-Nov-17 11:00N 41°17' W 072°21'0 0.0
2017-Nov-16 21:46N 41°17' W 072°21'516.6
2017-Nov-16 21:29N 41°13' W 072°17'3 3.9
2017-Nov-16 20:50N 41°11' W 072°15'721.2
2017-Nov-16 20:30N 41°16' W 072°21'6 2.0
2017-Nov-16 17:35N 41°12' W 072°15'223.3
2017-Nov-16 17:30N 41°13' W 072°17'4 9.0
2017-Nov-16 17:00N 41°17' W 072°21'7 1.8
2017-Nov-16 13:12N 41°11' W 072°15'420.0
2017-Nov-16 13:00N 41°14' W 072°19'3 6.8
2017-Nov-16 12:30N 41°17' W 072°21'7 8.8
2017-Nov-16 11:42N 41°11' W 072°15'419.6
2017-Nov-16 11:30N 41°14' W 072°19'4 7.1
2017-Nov-16 11:00N 41°17' W 072°21'0 0.0
2017-Nov-16 05:17N 41°17' W 072°21'517.0
2017-Nov-16 05:00N 41°13' W 072°17'2 0.4
2017-Nov-16 00:34N 41°11' W 072°16'221.8
2017-Nov-16 00:28N 41°13' W 072°18'1 1.8
2017-Nov-16 00:00N 41°14' W 072°18'4 2.1
2017-Nov-15 22:09N 41°11' W 072°15'321.6
2017-Nov-15 22:00N 41°14' W 072°18'0 0.5
2017-Nov-15 21:30N 41°13' W 072°18'4 7.1
2017-Nov-15 20:54N 41°11' W 072°14'820.8
2017-Nov-15 20:30N 41°17' W 072°21'4 8.6
2017-Nov-15 20:00N 41°13' W 072°17'5 2.0
2017-Nov-15 17:43N 41°10' W 072°13'523.0
2017-Nov-15 17:30N 41°14' W 072°18'4 7.5
2017-Nov-15 17:00N 41°17' W 072°21'0 0.0
2017-Nov-15 05:23N 41°17' W 072°21'616.1
2017-Nov-15 05:00N 41°12' W 072°17'4 0.9
2017-Nov-15 01:00N 41°10' W 072°12'611.8
2017-Nov-15 00:30N 41°14' W 072°18'0 0.7
2017-Nov-15 00:00N 41°14' W 072°18'3 1.5
2017-Nov-14 22:09N 41°11' W 072°16'321.7
2017-Nov-14 22:00N 41°14' W 072°18'1 1.7
2017-Nov-14 21:30N 41°13' W 072°18'3 4.5
2017-Nov-14 20:54N 41°11' W 072°15'718.0
2017-Nov-14 20:30N 41°17' W 072°21'4 8.6
2017-Nov-14 20:00N 41°13' W 072°18'4 1.9
2017-Nov-14 17:42N 41°10' W 072°13'422.5
2017-Nov-14 17:30N 41°13' W 072°18'4 7.6
2017-Nov-14 16:59N 41°16' W 072°20'5 1.3
2017-Nov-14 13:05N 41°13' W 072°16'220.1
2017-Nov-14 13:00N 41°14' W 072°18'3 6.3
2017-Nov-14 12:30N 41°16' W 072°20'6 6.8
2017-Nov-14 11:41N 41°12' W 072°16'318.7
2017-Nov-14 11:30N 41°14' W 072°19'3 5.9
2017-Nov-14 11:00N 41°17' W 072°21'0 0.0
2017-Nov-14 05:23N 41°17' W 072°21'616.1
2017-Nov-14 04:59N 41°12' W 072°16'3 0.7
2017-Nov-14 01:07N 41°10' W 072°12'2 4.2
2017-Nov-14 00:43N 41°11' W 072°14'520.8
2017-Nov-14 00:30N 41°14' W 072°19'1 2.2
2017-Nov-14 00:00N 41°13' W 072°18'3 1.8
2017-Nov-13 22:14N 41°11' W 072°15'520.2
2017-Nov-13 22:00N 41°15' W 072°19'5 0.2
2017-Nov-12 23:17N 41°11' W 072°14'622.1
2017-Nov-12 23:01N 41°15' W 072°20'2 4.8
2017-Nov-12 22:31N 41°13' W 072°17'  
2017-Nov-10 14:13N 41°10' W 072°13'623.4
2017-Nov-10 13:59N 41°13' W 072°20'4 8.2
2017-Nov-10 13:30N 41°17' W 072°21'815.1
2017-Nov-10 12:57N 41°11' W 072°13'3 2.3
2017-Nov-10 11:33N 41°12' W 072°18'224.0
2017-Nov-10 11:28N 41°13' W 072°20'4 9.6
2017-Nov-10 11:00N 41°17' W 072°21'0 0.0
2017-Nov-09 21:45N 41°17' W 072°21'517.7
2017-Nov-09 21:29N 41°13' W 072°17'3 4.7
2017-Nov-09 20:48N 41°11' W 072°14'722.6
2017-Nov-09 20:30N 41°15' W 072°20'2 4.9
2017-Nov-09 20:00N 41°14' W 072°18'4 1.6
2017-Nov-09 17:39N 41°11' W 072°14'320.6
2017-Nov-09 17:30N 41°13' W 072°18'5 9.2
2017-Nov-09 17:01N 41°17' W 072°21'9 2.3
2017-Nov-09 13:13N 41°11' W 072°13'521.6
2017-Nov-09 13:00N 41°13' W 072°18'4 8.0
2017-Nov-09 12:30N 41°17' W 072°21'917.5
2017-Nov-09 12:00N 41°10' W 072°13'5 9.1
2017-Nov-09 11:30N 41°13' W 072°18'4 8.6
2017-Nov-09 11:00N 41°17' W 072°21'0 0.0
2017-Nov-09 05:19N 41°17' W 072°21'515.2
2017-Nov-09 05:00N 41°13' W 072°18'5 1.2
2017-Nov-09 01:05N 41°09' W 072°14'2 5.0
2017-Nov-09 00:44N 41°11' W 072°13'522.7
2017-Nov-09 00:30N 41°14' W 072°19'1 2.0
2017-Nov-09 00:00N 41°13' W 072°18'2 0.9
2017-Nov-08 22:04N 41°12' W 072°16'225.3
2017-Nov-08 22:00N 41°13' W 072°17'0 0.5
2017-Nov-08 21:30N 41°14' W 072°17'4 7.1
2017-Nov-08 20:55N 41°11' W 072°13'821.1
2017-Nov-08 20:31N 41°17' W 072°21'4 8.6
2017-Nov-08 20:00N 41°14' W 072°17'4 1.7
2017-Nov-08 17:43N 41°11' W 072°14'420.7
2017-Nov-08 17:30N 41°14' W 072°18'4 7.9
2017-Nov-08 17:00N 41°17' W 072°21'8 2.0
2017-Nov-08 13:12N 41°11' W 072°14'420.9
2017-Nov-08 13:00N 41°14' W 072°18'4 7.8
2017-Nov-08 12:30N 41°17' W 072°21'917.8
2017-Nov-08 12:00N 41°10' W 072°13'5 9.6
2017-Nov-08 11:30N 41°13' W 072°18'4 8.5
2017-Nov-08 11:00N 41°17' W 072°21'0 0.0
2017-Nov-08 05:13N 41°17' W 072°21'418.1
2017-Nov-08 05:00N 41°14' W 072°18'5 1.0
2017-Nov-08 00:38N 41°11' W 072°14'322.8
2017-Nov-08 00:30N 41°13' W 072°17'1 2.4
2017-Nov-08 00:00N 41°14' W 072°18'6 3.3
2017-Nov-07 22:18N 41°09' W 072°13'  
Track history (hours):
 
Tides and Currents Weather Stations Pressure Air Temp Water Temp Dewpoint Dewpoint Depression Visibility Wind Speed Wind Dir Waves Ship Positions

M. S. Shahan II

Owner: Department of Homeland Security Plum Island Facility, Greenport, NY. More information available from US FCC via Universal Licensing System and Coast Guard Vessel Documentation Center.

Last reported at 2017-Nov-17 22:08 UTC. Time now 2017-Nov-24 05:53 UTC.
Position N 41°11' W 072°15'.

Length 40 m; draft 3 m.

Type: Passenger vessel. MMSI: 367181880.

Date/timePositionNaut miles runAvg speedWind from/ knotsBaromVisibWave heightAir tempDewpointWater temp
2017-Nov-17 22:08N 41°11' W 072°15'323.0
2017-Nov-17 22:00N 41°14' W 072°18'1 1.1
2017-Nov-17 21:30N 41°13' W 072°17'1 1.6
2017-Nov-17 20:35N 41°12' W 072°16'225.8
2017-Nov-17 20:30N 41°14' W 072°18'0 1.0
2017-Nov-17 20:01N 41°14' W 072°17'1 0.3
2017-Nov-17 17:16N 41°14' W 072°18'311.0
2017-Nov-17 17:00N 41°17' W 072°21'6 1.4
2017-Nov-17 13:03N 41°12' W 072°16'121.1
2017-Nov-17 13:00N 41°13' W 072°17'5 9.4
2017-Nov-17 12:30N 41°17' W 072°21'7 8.0
2017-Nov-17 11:38N 41°11' W 072°15'321.3
2017-Nov-17 11:30N 41°13' W 072°17'5 9.5
2017-Nov-17 11:00N 41°17' W 072°21'0 0.0
2017-Nov-16 21:46N 41°17' W 072°21'516.6
2017-Nov-16 21:29N 41°13' W 072°17'3 3.9
2017-Nov-16 20:50N 41°11' W 072°15'721.2
2017-Nov-16 20:30N 41°16' W 072°21'6 2.0
2017-Nov-16 17:35N 41°12' W 072°15'223.3
2017-Nov-16 17:30N 41°13' W 072°17'4 9.0
2017-Nov-16 17:00N 41°17' W 072°21'7 1.8
2017-Nov-16 13:12N 41°11' W 072°15'420.0
2017-Nov-16 13:00N 41°14' W 072°19'3 6.8
2017-Nov-16 12:30N 41°17' W 072°21'7 8.8
2017-Nov-16 11:42N 41°11' W 072°15'419.6
2017-Nov-16 11:30N 41°14' W 072°19'4 7.1
2017-Nov-16 11:00N 41°17' W 072°21'0 0.0
2017-Nov-16 05:17N 41°17' W 072°21'517.0
2017-Nov-16 05:00N 41°13' W 072°17'2 0.4
2017-Nov-16 00:34N 41°11' W 072°16'221.8
2017-Nov-16 00:28N 41°13' W 072°18'1 1.8
2017-Nov-16 00:00N 41°14' W 072°18'4 2.1
2017-Nov-15 22:09N 41°11' W 072°15'321.6
2017-Nov-15 22:00N 41°14' W 072°18'0 0.5
2017-Nov-15 21:30N 41°13' W 072°18'4 7.1
2017-Nov-15 20:54N 41°11' W 072°14'820.8
2017-Nov-15 20:30N 41°17' W 072°21'4 8.6
2017-Nov-15 20:00N 41°13' W 072°17'5 2.0
2017-Nov-15 17:43N 41°10' W 072°13'523.0
2017-Nov-15 17:30N 41°14' W 072°18'4 7.5
2017-Nov-15 17:00N 41°17' W 072°21'0 0.0
2017-Nov-15 05:23N 41°17' W 072°21'616.1
2017-Nov-15 05:00N 41°12' W 072°17'4 0.9
2017-Nov-15 01:00N 41°10' W 072°12'611.8
2017-Nov-15 00:30N 41°14' W 072°18'0 0.7
2017-Nov-15 00:00N 41°14' W 072°18'3 1.5
2017-Nov-14 22:09N 41°11' W 072°16'321.7
2017-Nov-14 22:00N 41°14' W 072°18'1 1.7
2017-Nov-14 21:30N 41°13' W 072°18'3 4.5
2017-Nov-14 20:54N 41°11' W 072°15'718.0
2017-Nov-14 20:30N 41°17' W 072°21'4 8.6
2017-Nov-14 20:00N 41°13' W 072°18'4 1.9
2017-Nov-14 17:42N 41°10' W 072°13'422.5
2017-Nov-14 17:30N 41°13' W 072°18'4 7.6
2017-Nov-14 16:59N 41°16' W 072°20'5 1.3
2017-Nov-14 13:05N 41°13' W 072°16'220.1
2017-Nov-14 13:00N 41°14' W 072°18'3 6.3
2017-Nov-14 12:30N 41°16' W 072°20'6 6.8
2017-Nov-14 11:41N 41°12' W 072°16'318.7
2017-Nov-14 11:30N 41°14' W 072°19'3 5.9
2017-Nov-14 11:00N 41°17' W 072°21'0 0.0
2017-Nov-14 05:23N 41°17' W 072°21'616.1
2017-Nov-14 04:59N 41°12' W 072°16'3 0.7
2017-Nov-14 01:07N 41°10' W 072°12'2 4.2
2017-Nov-14 00:43N 41°11' W 072°14'520.8
2017-Nov-14 00:30N 41°14' W 072°19'1 2.2
2017-Nov-14 00:00N 41°13' W 072°18'3 1.8
2017-Nov-13 22:14N 41°11' W 072°15'520.2
2017-Nov-13 22:00N 41°15' W 072°19'5 0.2
2017-Nov-12 23:17N 41°11' W 072°14'622.1
2017-Nov-12 23:01N 41°15' W 072°20'2 4.8
2017-Nov-12 22:31N 41°13' W 072°17'  
2017-Nov-10 14:13N 41°10' W 072°13'623.4
2017-Nov-10 13:59N 41°13' W 072°20'4 8.2
2017-Nov-10 13:30N 41°17' W 072°21'815.1
2017-Nov-10 12:57N 41°11' W 072°13'3 2.3
2017-Nov-10 11:33N 41°12' W 072°18'224.0
2017-Nov-10 11:28N 41°13' W 072°20'4 9.6
2017-Nov-10 11:00N 41°17' W 072°21'0 0.0
2017-Nov-09 21:45N 41°17' W 072°21'517.7
2017-Nov-09 21:29N 41°13' W 072°17'3 4.7
2017-Nov-09 20:48N 41°11' W 072°14'722.6
2017-Nov-09 20:30N 41°15' W 072°20'2 4.9
2017-Nov-09 20:00N 41°14' W 072°18'4 1.6
2017-Nov-09 17:39N 41°11' W 072°14'320.6
2017-Nov-09 17:30N 41°13' W 072°18'5 9.2
2017-Nov-09 17:01N 41°17' W 072°21'9 2.3
2017-Nov-09 13:13N 41°11' W 072°13'521.6
2017-Nov-09 13:00N 41°13' W 072°18'4 8.0
2017-Nov-09 12:30N 41°17' W 072°21'917.5
2017-Nov-09 12:00N 41°10' W 072°13'5 9.1
2017-Nov-09 11:30N 41°13' W 072°18'4 8.6
2017-Nov-09 11:00N 41°17' W 072°21'0 0.0
2017-Nov-09 05:19N 41°17' W 072°21'515.2
2017-Nov-09 05:00N 41°13' W 072°18'5 1.2
2017-Nov-09 01:05N 41°09' W 072°14'2 5.0
2017-Nov-09 00:44N 41°11' W 072°13'522.7
2017-Nov-09 00:30N 41°14' W 072°19'1 2.0
2017-Nov-09 00:00N 41°13' W 072°18'2 0.9
2017-Nov-08 22:04N 41°12' W 072°16'225.3
2017-Nov-08 22:00N 41°13' W 072°17'0 0.5
2017-Nov-08 21:30N 41°14' W 072°17'4 7.1
2017-Nov-08 20:55N 41°11' W 072°13'821.1
2017-Nov-08 20:31N 41°17' W 072°21'4 8.6
2017-Nov-08 20:00N 41°14' W 072°17'4 1.7
2017-Nov-08 17:43N 41°11' W 072°14'420.7
2017-Nov-08 17:30N 41°14' W 072°18'4 7.9
2017-Nov-08 17:00N 41°17' W 072°21'8 2.0
2017-Nov-08 13:12N 41°11' W 072°14'420.9
2017-Nov-08 13:00N 41°14' W 072°18'4 7.8
2017-Nov-08 12:30N 41°17' W 072°21'917.8
2017-Nov-08 12:00N 41°10' W 072°13'5 9.6
2017-Nov-08 11:30N 41°13' W 072°18'4 8.5
2017-Nov-08 11:00N 41°17' W 072°21'0 0.0
2017-Nov-08 05:13N 41°17' W 072°21'418.1
2017-Nov-08 05:00N 41°14' W 072°18'5 1.0
2017-Nov-08 00:38N 41°11' W 072°14'322.8
2017-Nov-08 00:30N 41°13' W 072°17'1 2.4
2017-Nov-08 00:00N 41°14' W 072°18'6 3.3
2017-Nov-07 22:18N 41°09' W 072°13'  

Dump ship's entire track history